createdAt,value
2019-05-13T00:00:11.171Z,28.45
2019-05-13T00:00:47.045Z,28.52
2019-05-13T00:01:23.772Z,28.60
2019-05-13T00:02:04.634Z,28.71
2019-05-13T00:02:40.824Z,28.82
2019-05-13T00:03:16.797Z,28.96
2019-05-13T00:03:54.200Z,29.08
2019-05-13T00:04:30.247Z,29.14
2019-05-13T00:05:06.451Z,29.28
2019-05-13T00:05:44.587Z,29.37
2019-05-13T00:06:20.041Z,29.45
2019-05-13T00:06:57.714Z,29.46
2019-05-13T00:07:34.294Z,29.61
2019-05-13T00:08:10.269Z,29.67
2019-05-13T00:08:48.147Z,29.79
2019-05-13T00:09:24.578Z,29.79
2019-05-13T00:10:00.568Z,29.87
2019-05-13T00:10:36.463Z,29.98
2019-05-13T00:11:13.618Z,29.98
2019-05-13T00:11:54.067Z,30.03
2019-05-13T00:12:50.406Z,30.06
2019-05-13T00:13:26.411Z,30.22
2019-05-13T00:14:04.261Z,30.22
2019-05-13T00:14:39.995Z,30.29
2019-05-13T00:15:16.395Z,30.29
2019-05-13T00:15:54.396Z,30.41
2019-05-13T00:16:30.287Z,30.41
2019-05-13T00:17:06.307Z,30.38
2019-05-13T00:17:44.564Z,30.51
2019-05-13T00:18:20.772Z,30.55
2019-05-13T00:18:59.479Z,30.63
2019-05-13T00:19:35.369Z,30.63
2019-05-13T00:22:18.467Z,30.71
2019-05-13T00:22:54.389Z,30.88
2019-05-13T00:23:33.942Z,30.88
2019-05-13T00:24:09.789Z,30.90
2019-05-13T00:24:45.743Z,30.98
2019-05-13T00:25:24.069Z,31.03
2019-05-13T00:26:07.596Z,31.06
2019-05-13T00:26:44.411Z,31.10
2019-05-13T00:27:20.808Z,31.15
2019-05-13T00:27:56.749Z,31.21
2019-05-13T00:28:34.267Z,31.23
2019-05-13T00:29:10.402Z,31.26
2019-05-13T00:29:46.273Z,31.28
2019-05-13T00:30:23.511Z,31.30
2019-05-13T00:30:59.787Z,31.28
2019-05-13T00:31:36.400Z,31.27
2019-05-13T00:32:13.501Z,31.37
2019-05-13T00:32:50.669Z,31.37
2019-05-13T00:33:26.554Z,31.43
2019-05-13T00:34:03.684Z,31.46
2019-05-13T00:34:39.869Z,31.51
2019-05-13T00:35:15.955Z,31.55
2019-05-13T00:35:53.410Z,31.59
2019-05-13T00:36:29.687Z,31.62
2019-05-13T00:37:10.808Z,31.66
2019-05-13T00:37:44.234Z,31.70
2019-05-13T00:38:20.477Z,31.74
2019-05-13T00:38:56.388Z,31.79
2019-05-13T00:39:33.620Z,31.83
2019-05-13T00:40:09.842Z,31.87
2019-05-13T00:40:45.854Z,31.91
2019-05-13T00:41:21.675Z,31.98
2019-05-13T00:41:57.587Z,32.01
2019-05-13T00:42:35.750Z,32.05
2019-05-13T00:43:14.040Z,32.08
2019-05-13T00:43:49.297Z,32.12
2019-05-13T00:44:25.257Z,32.17
2019-05-13T00:45:03.849Z,32.22
2019-05-13T00:45:38.898Z,32.26
2019-05-13T00:46:14.724Z,32.31
2019-05-13T00:46:50.622Z,32.33
2019-05-13T00:47:26.552Z,32.36
2019-05-13T00:48:04.465Z,32.38
2019-05-13T00:48:40.262Z,32.42
2019-05-13T00:49:16.196Z,32.45
2019-05-13T00:49:54.059Z,32.49
2019-05-13T00:50:30.002Z,32.50
2019-05-13T00:51:05.890Z,32.55
2019-05-13T00:51:44.222Z,32.57
2019-05-13T00:52:23.567Z,32.59
2019-05-13T00:52:59.677Z,32.63
2019-05-13T00:53:38.016Z,32.67
2019-05-13T00:54:13.853Z,32.70
2019-05-13T00:54:49.746Z,32.72
2019-05-13T00:55:25.697Z,32.74
2019-05-13T00:56:03.887Z,32.78
2019-05-13T00:56:39.314Z,32.79
2019-05-13T00:57:15.201Z,32.82
2019-05-13T00:57:51.092Z,32.84
2019-05-13T00:58:26.934Z,32.86
2019-05-13T00:59:03.682Z,32.89
2019-05-13T00:59:39.694Z,32.92
2019-05-13T01:00:16.211Z,32.96
2019-05-13T01:00:54.427Z,32.98
2019-05-13T01:01:29.791Z,33.02
2019-05-13T01:02:05.843Z,33.03
2019-05-13T01:02:44.336Z,33.06
2019-05-13T01:03:19.381Z,33.08
2019-05-13T01:03:55.285Z,33.10
2019-05-13T01:04:31.178Z,33.13
2019-05-13T01:05:07.232Z,33.14
2019-05-13T01:05:44.570Z,33.15
2019-05-13T01:06:20.709Z,33.16
2019-05-13T01:06:56.597Z,33.15
2019-05-13T01:07:34.160Z,33.17
2019-05-13T01:08:10.135Z,33.21
2019-05-13T01:08:46.041Z,33.23
2019-05-13T01:09:25.991Z,33.25
2019-05-13T01:10:04.022Z,33.26
2019-05-13T01:10:39.541Z,33.31
2019-05-13T01:11:15.409Z,33.34
2019-05-13T01:11:53.531Z,33.38
2019-05-13T01:12:29.030Z,33.42
2019-05-13T01:13:06.128Z,33.47
2019-05-13T01:13:43.360Z,33.51
2019-05-13T01:14:20.839Z,33.55
2019-05-13T01:14:56.741Z,33.56
2019-05-13T01:15:34.337Z,33.59
2019-05-13T01:16:10.653Z,33.61
2019-05-13T01:16:46.662Z,33.66
2019-05-13T01:17:23.519Z,33.70
2019-05-13T01:17:59.611Z,33.71
2019-05-13T01:18:35.545Z,33.74
2019-05-13T01:19:11.438Z,33.76
2019-05-13T01:19:47.311Z,33.79
2019-05-13T01:20:23.979Z,33.82
2019-05-13T01:20:59.917Z,33.85
2019-05-13T01:21:35.776Z,33.88
2019-05-13T01:22:13.487Z,33.95
2019-05-13T01:22:49.524Z,34.00
2019-05-13T01:23:26.076Z,34.02
2019-05-13T01:24:03.677Z,34.03
2019-05-13T01:24:40.515Z,34.06
2019-05-13T01:25:16.498Z,34.11
2019-05-13T01:25:54.496Z,34.13
2019-05-13T01:26:30.115Z,34.12
2019-05-13T01:27:06.012Z,34.14
2019-05-13T01:27:43.993Z,34.18
2019-05-13T01:28:19.558Z,34.21
2019-05-13T01:28:55.506Z,34.27
2019-05-13T01:29:31.413Z,34.28
2019-05-13T01:30:07.762Z,34.28
2019-05-13T01:30:44.074Z,34.30
2019-05-13T01:31:20.045Z,34.32
2019-05-13T01:31:55.891Z,34.35
2019-05-13T01:32:34.181Z,34.38
2019-05-13T01:33:09.752Z,34.43
2019-05-13T01:33:45.725Z,34.44
2019-05-13T01:34:23.618Z,34.47
2019-05-13T01:34:59.318Z,34.53
2019-05-13T01:35:35.270Z,34.57
2019-05-13T01:36:13.254Z,34.59
2019-05-13T01:36:49.071Z,34.60
2019-05-13T01:37:39.207Z,34.61
2019-05-13T01:38:04.586Z,34.63
2019-05-13T01:38:40.343Z,34.67
2019-05-13T01:39:16.246Z,34.74
2019-05-13T01:39:54.034Z,34.76
2019-05-13T01:40:29.923Z,34.80
2019-05-13T01:41:05.876Z,34.79
2019-05-13T01:43:26.124Z,34.86
2019-05-13T01:44:03.990Z,34.89
2019-05-13T01:44:39.700Z,34.94
2019-05-13T01:45:15.711Z,34.96
2019-05-13T01:45:53.682Z,35.02
2019-05-13T01:46:34.528Z,35.07
2019-05-13T01:47:10.057Z,35.11
2019-05-13T01:47:46.024Z,35.18
2019-05-13T01:48:23.887Z,35.23
2019-05-13T01:48:59.745Z,35.27
2019-05-13T01:49:35.670Z,35.31
2019-05-13T01:50:14.019Z,35.33
2019-05-13T01:50:49.415Z,35.35
2019-05-13T01:51:25.409Z,35.40
2019-05-13T01:52:03.875Z,35.46
2019-05-13T01:52:38.959Z,35.46
2019-05-13T01:53:14.813Z,35.47
2019-05-13T01:53:50.693Z,35.51
2019-05-13T01:54:26.697Z,35.58
2019-05-13T01:55:04.054Z,35.59
2019-05-13T01:55:40.102Z,35.64
2019-05-13T01:56:16.076Z,35.64
2019-05-13T01:56:53.512Z,35.57
2019-05-13T01:57:29.525Z,35.60
2019-05-13T01:58:05.554Z,35.63
2019-05-13T01:58:41.452Z,35.66
2019-05-13T01:59:17.317Z,35.73
2019-05-13T01:59:53.898Z,35.80
2019-05-13T02:00:29.934Z,35.83
2019-05-13T02:01:05.865Z,35.87
2019-05-13T02:01:44.063Z,35.93
2019-05-13T02:02:19.597Z,35.97
2019-05-13T02:02:55.478Z,36.04
2019-05-13T02:03:33.638Z,36.08
2019-05-13T02:04:09.164Z,36.12
2019-05-13T02:04:45.057Z,36.18
2019-05-13T02:05:21.067Z,36.22
2019-05-13T02:05:57.022Z,36.26
2019-05-13T02:06:33.581Z,36.23
2019-05-13T02:07:09.749Z,36.29
2019-05-13T02:07:59.667Z,36.23
2019-05-13T02:08:25.885Z,36.07
2019-05-13T02:09:03.837Z,36.04
2019-05-13T02:09:39.671Z,36.04
2019-05-13T02:10:18.210Z,35.89
2019-05-13T02:10:55.337Z,35.76
2019-05-13T02:11:33.998Z,35.68
2019-05-13T02:12:09.187Z,35.74
2019-05-13T02:12:45.157Z,35.82
2019-05-13T02:13:21.056Z,35.91
2019-05-13T02:13:56.997Z,36.00
2019-05-13T02:14:34.355Z,36.09
2019-05-13T02:15:10.414Z,36.12
2019-05-13T02:15:46.311Z,36.20
2019-05-13T02:16:24.256Z,36.24
2019-05-13T02:16:59.882Z,36.24
2019-05-13T02:17:35.789Z,36.29
2019-05-13T02:18:13.455Z,36.31
2019-05-13T02:18:49.413Z,36.35
2019-05-13T02:19:25.331Z,36.41
2019-05-13T02:20:03.700Z,36.48
2019-05-13T02:20:38.832Z,36.47
2019-05-13T02:21:14.766Z,36.53
2019-05-13T02:21:50.888Z,36.58
2019-05-13T02:22:29.939Z,36.60
2019-05-13T02:23:06.163Z,36.60
2019-05-13T02:23:44.293Z,36.67
2019-05-13T02:24:20.186Z,36.75
2019-05-13T02:24:56.133Z,36.78
2019-05-13T02:25:34.049Z,36.82
2019-05-13T02:26:09.771Z,36.84
2019-05-13T02:26:47.977Z,36.87
2019-05-13T02:27:25.504Z,36.90
2019-05-13T02:28:09.115Z,36.89
2019-05-13T02:28:39.232Z,36.92
2019-05-13T02:29:15.203Z,36.95
2019-05-13T02:29:51.102Z,36.81
2019-05-13T02:30:27.161Z,36.84
2019-05-13T02:31:03.252Z,36.71
2019-05-13T02:31:46.480Z,36.55
2019-05-13T02:32:16.917Z,36.39
2019-05-13T02:32:53.190Z,36.16
2019-05-13T02:33:29.228Z,36.01
2019-05-13T02:34:05.110Z,35.89
2019-05-13T02:34:43.707Z,35.78
2019-05-13T02:35:18.680Z,35.68
2019-05-13T02:35:54.629Z,35.61
2019-05-13T02:36:33.044Z,35.70
2019-05-13T02:37:08.437Z,35.83
2019-05-13T02:37:44.307Z,35.81
2019-05-13T02:38:26.325Z,35.93
2019-05-13T02:38:57.916Z,36.02
2019-05-13T02:39:33.843Z,36.13
2019-05-13T02:40:13.147Z,36.23
2019-05-13T02:40:47.448Z,36.34
2019-05-13T02:41:23.343Z,36.41
2019-05-13T02:42:03.010Z,36.26
2019-05-13T02:42:37.076Z,36.08
2019-05-13T02:43:13.752Z,35.92
2019-05-13T02:43:52.555Z,35.83
2019-05-13T02:44:27.459Z,35.67
2019-05-13T02:45:03.942Z,35.52
2019-05-13T02:45:42.858Z,35.43
2019-05-13T02:46:18.905Z,35.34
2019-05-13T02:46:54.852Z,35.27
2019-05-13T02:47:33.562Z,35.32
2019-05-13T02:48:12.561Z,35.49
2019-05-13T02:48:47.946Z,35.65
2019-05-13T02:49:23.825Z,35.74
2019-05-13T02:50:03.878Z,35.82
2019-05-13T02:50:44.186Z,35.88
2019-05-13T02:51:18.989Z,35.95
2019-05-13T02:51:55.087Z,36.05
2019-05-13T02:52:33.462Z,36.09
2019-05-13T02:53:08.875Z,36.15
2019-05-13T02:53:52.259Z,36.22
2019-05-13T02:54:27.163Z,36.25
2019-05-13T02:55:03.916Z,36.29
2019-05-13T02:55:43.452Z,36.32
2019-05-13T02:56:17.930Z,36.39
2019-05-13T02:56:53.819Z,36.45
2019-05-13T02:57:32.800Z,36.47
2019-05-13T02:58:07.523Z,36.54
2019-05-13T03:01:04.117Z,36.68
2019-05-13T03:01:43.026Z,36.83
2019-05-13T03:02:17.877Z,36.90
2019-05-13T03:02:53.743Z,36.95
2019-05-13T03:03:32.560Z,37.00
2019-05-13T03:04:07.319Z,36.99
2019-05-13T03:04:43.623Z,37.00
2019-05-13T03:05:21.962Z,37.03
2019-05-13T03:05:57.454Z,37.01
2019-05-13T03:06:43.520Z,37.00
2019-05-13T03:07:23.025Z,37.03
2019-05-13T03:07:57.567Z,37.05
2019-05-13T03:08:43.827Z,37.04
2019-05-13T03:09:12.711Z,37.02
2019-05-13T03:09:52.701Z,37.04
2019-05-13T03:10:28.892Z,36.82
2019-05-13T03:11:04.763Z,36.61
2019-05-13T03:11:42.339Z,36.45
2019-05-13T03:12:18.405Z,36.48
2019-05-13T03:12:54.298Z,36.51
2019-05-13T03:13:32.747Z,36.57
2019-05-13T03:14:07.950Z,36.58
2019-05-13T03:14:47.932Z,36.60
2019-05-13T03:15:23.104Z,36.51
2019-05-13T03:16:27.442Z,36.57
2019-05-13T03:17:14.641Z,36.64
2019-05-13T03:18:13.292Z,36.73
2019-05-13T03:18:46.687Z,36.79
2019-05-13T03:19:25.245Z,36.82
2019-05-13T03:20:04.149Z,36.83
2019-05-13T03:20:39.466Z,36.87
2019-05-13T03:21:15.501Z,36.91
2019-05-13T03:21:52.510Z,36.92
2019-05-13T03:22:28.795Z,36.96
2019-05-13T03:23:04.777Z,36.98
2019-05-13T03:23:43.998Z,36.97
2019-05-13T03:24:22.409Z,37.03
2019-05-13T03:24:56.949Z,36.95
2019-05-13T03:25:33.348Z,36.87
2019-05-13T03:26:12.661Z,36.93
2019-05-13T03:26:47.222Z,36.98
2019-05-13T03:27:25.231Z,37.00
2019-05-13T03:28:03.272Z,37.00
2019-05-13T03:28:38.777Z,36.99
2019-05-13T03:29:14.732Z,37.03
2019-05-13T03:29:53.349Z,36.97
2019-05-13T03:30:28.448Z,37.00
2019-05-13T03:31:07.290Z,36.99
2019-05-13T03:31:46.225Z,37.01
2019-05-13T03:32:25.741Z,36.99
2019-05-13T03:33:02.049Z,36.98
2019-05-13T03:33:37.576Z,36.90
2019-05-13T03:34:15.767Z,36.90
2019-05-13T03:34:56.046Z,36.91
2019-05-13T03:35:28.397Z,36.87
2019-05-13T03:36:06.651Z,36.84
2019-05-13T03:36:46.130Z,36.86
2019-05-13T03:37:26.028Z,36.86
2019-05-13T03:37:59.035Z,36.85
2019-05-13T03:38:54.796Z,36.79
2019-05-13T03:39:16.396Z,36.79
2019-05-13T03:39:52.312Z,36.84
2019-05-13T03:40:32.820Z,36.87
2019-05-13T03:41:22.566Z,36.85
2019-05-13T03:46:08.508Z,36.89
2019-05-13T03:46:44.370Z,36.86
2019-05-13T03:47:23.019Z,36.87
2019-05-13T03:47:59.574Z,36.83
2019-05-13T03:48:36.749Z,36.78
2019-05-13T03:49:14.390Z,36.74
2019-05-13T03:49:54.796Z,36.73
2019-05-13T03:50:34.416Z,36.71
2019-05-13T03:51:12.911Z,36.72
2019-05-13T03:51:53.206Z,36.71
2019-05-13T03:52:27.888Z,36.74
2019-05-13T03:53:03.799Z,36.74
2019-05-13T03:53:42.946Z,36.73
2019-05-13T03:54:17.399Z,36.78
2019-05-13T03:54:53.417Z,36.78
2019-05-13T03:55:32.544Z,36.82
2019-05-13T03:56:07.728Z,36.80
2019-05-13T03:56:43.592Z,36.79
2019-05-13T03:57:23.067Z,36.74
2019-05-13T03:57:58.035Z,36.78
2019-05-13T03:58:34.143Z,36.78
2019-05-13T03:59:13.125Z,36.83
2019-05-13T03:59:47.733Z,36.86
2019-05-13T04:00:23.917Z,36.88
2019-05-13T04:01:02.903Z,36.94
2019-05-13T04:01:37.717Z,37.02
2019-05-13T04:02:13.672Z,37.02
2019-05-13T04:02:52.148Z,37.02
2019-05-13T04:03:27.645Z,37.06
2019-05-13T04:04:06.433Z,37.02
2019-05-13T04:04:42.595Z,37.00
2019-05-13T04:05:18.530Z,37.00
2019-05-13T04:05:54.836Z,37.00
2019-05-13T04:06:32.351Z,37.01
2019-05-13T04:07:08.453Z,37.02
2019-05-13T04:07:44.357Z,37.01
2019-05-13T04:08:22.782Z,37.02
2019-05-13T04:09:17.085Z,36.99
2019-05-13T04:09:36.797Z,36.93
2019-05-13T04:10:13.350Z,36.91
2019-05-13T04:10:52.507Z,36.89
2019-05-13T04:11:28.732Z,36.75
2019-05-13T04:12:04.599Z,36.76
2019-05-13T04:12:42.585Z,36.79
2019-05-13T04:13:18.492Z,36.76
2019-05-13T04:13:57.546Z,36.80
2019-05-13T04:14:34.018Z,36.78
2019-05-13T04:15:12.600Z,36.75
2019-05-13T04:15:48.362Z,36.76
2019-05-13T04:16:32.295Z,36.75
2019-05-13T04:17:07.532Z,36.74
2019-05-13T04:17:44.624Z,36.68
2019-05-13T04:18:23.372Z,36.60
2019-05-13T04:18:58.253Z,36.64
2019-05-13T04:19:34.479Z,36.67
2019-05-13T04:20:12.553Z,36.73
2019-05-13T04:20:48.452Z,36.77
2019-05-13T04:21:25.814Z,36.83
2019-05-13T04:22:02.407Z,36.88
2019-05-13T04:22:38.600Z,36.93
2019-05-13T04:23:14.510Z,36.99
2019-05-13T04:23:53.009Z,37.06
2019-05-13T04:24:28.881Z,37.13
2019-05-13T04:25:06.094Z,37.21
2019-05-13T04:25:44.865Z,37.13
2019-05-13T04:26:24.000Z,37.08
2019-05-13T04:27:02.793Z,36.92
2019-05-13T04:27:37.953Z,36.86
2019-05-13T04:28:13.800Z,36.93
2019-05-13T04:28:52.872Z,36.95
2019-05-13T04:29:28.923Z,37.00
2019-05-13T04:30:05.037Z,37.00
2019-05-13T04:30:43.528Z,37.02
2019-05-13T04:31:22.774Z,37.06
2019-05-13T04:31:57.533Z,37.09
2019-05-13T04:32:33.781Z,37.15
2019-05-13T04:33:12.957Z,37.16
2019-05-13T04:33:48.327Z,37.17
2019-05-13T04:35:28.892Z,37.19
2019-05-13T04:36:05.003Z,37.23
2019-05-13T04:36:43.051Z,37.20
2019-05-13T04:37:22.077Z,37.18
2019-05-13T04:38:02.447Z,37.13
2019-05-13T04:38:37.421Z,37.11
2019-05-13T04:39:14.081Z,37.04
2019-05-13T04:39:56.385Z,36.97
2019-05-13T04:40:33.174Z,36.78
2019-05-13T04:41:11.123Z,36.60
2019-05-13T04:41:46.596Z,36.42
2019-05-13T04:42:23.285Z,36.46
2019-05-13T04:43:02.611Z,36.34
2019-05-13T04:43:37.098Z,36.19
2019-05-13T04:44:13.350Z,36.11
2019-05-13T04:44:49.347Z,35.97
2019-05-13T04:45:25.381Z,35.86
2019-05-13T04:46:02.512Z,35.78
2019-05-13T04:46:38.810Z,35.85
2019-05-13T04:47:18.652Z,35.79
2019-05-13T04:47:54.531Z,35.67
2019-05-13T04:48:34.039Z,35.68
2019-05-13T04:49:12.570Z,35.65
2019-05-13T04:49:47.777Z,35.67
2019-05-13T04:50:26.152Z,35.78
2019-05-13T04:51:03.221Z,35.80
2019-05-13T04:51:42.107Z,35.77
2019-05-13T04:52:17.273Z,35.74
2019-05-13T04:52:56.226Z,35.81
2019-05-13T04:53:33.432Z,35.92
2019-05-13T04:54:12.769Z,35.91
2019-05-13T04:55:22.887Z,35.97
2019-05-13T04:55:58.790Z,36.00
2019-05-13T04:56:34.773Z,36.13
2019-05-13T04:57:12.338Z,36.25
2019-05-13T04:57:48.655Z,36.27
2019-05-13T04:58:24.736Z,36.39
2019-05-13T04:59:02.967Z,36.49
2019-05-13T04:59:41.329Z,36.59
2019-05-13T05:00:17.697Z,36.71
2019-05-13T05:01:32.213Z,36.82
2019-05-13T05:02:51.297Z,36.92
2019-05-13T05:03:41.254Z,37.10
2019-05-13T05:04:55.067Z,37.06
2019-05-13T05:05:54.023Z,36.94
2019-05-13T05:06:57.584Z,36.88
2019-05-13T05:07:43.974Z,36.86
2019-05-13T05:09:03.052Z,36.66
2019-05-13T05:10:17.739Z,36.55
2019-05-13T05:11:05.200Z,36.39
2019-05-13T05:12:15.443Z,36.11
2019-05-13T05:13:18.484Z,36.01
2019-05-13T05:14:32.683Z,35.81
2019-05-13T05:15:47.222Z,35.72
2019-05-13T05:17:03.570Z,35.60
2019-05-13T05:18:11.629Z,35.45
2019-05-13T05:19:26.542Z,35.33
2019-05-13T05:20:23.887Z,35.26
2019-05-13T05:21:11.934Z,35.12
2019-05-13T05:22:02.913Z,35.04
2019-05-13T05:23:16.334Z,34.97
2019-05-13T05:24:38.446Z,34.90
2019-05-13T05:25:34.649Z,34.82
2019-05-13T05:26:27.865Z,34.65
2019-05-13T05:28:02.233Z,34.59
2019-05-13T05:29:11.457Z,34.52
2019-05-13T05:29:58.305Z,34.35
2019-05-13T05:31:14.301Z,34.27
2019-05-13T05:32:18.161Z,34.23
2019-05-13T05:33:05.545Z,34.12
2019-05-13T05:34:21.893Z,34.05
2019-05-13T05:35:45.865Z,34.01
2019-05-13T05:36:44.167Z,33.95
2019-05-13T05:37:35.521Z,33.89
2019-05-13T05:38:43.245Z,33.88
2019-05-13T05:39:24.535Z,33.85
2019-05-13T05:40:01.927Z,33.80
2019-05-13T05:40:39.613Z,33.78
2019-05-13T05:41:18.253Z,33.74
2019-05-13T05:41:56.381Z,33.68
2019-05-13T05:42:33.760Z,33.68
2019-05-13T05:43:11.588Z,33.66
2019-05-13T05:43:48.407Z,33.65
2019-05-13T05:44:24.861Z,33.65
2019-05-13T05:45:02.901Z,33.62
2019-05-13T05:45:41.848Z,33.62
2019-05-13T05:46:21.848Z,33.62
2019-05-13T05:47:02.156Z,33.62
2019-05-13T05:47:38.219Z,33.61
2019-05-13T05:48:17.528Z,33.60
2019-05-13T05:48:54.948Z,33.60
2019-05-13T05:49:31.998Z,33.58
2019-05-13T05:50:08.444Z,33.56
2019-05-13T05:50:44.942Z,33.56
2019-05-13T05:51:22.235Z,33.58
2019-05-13T05:52:06.251Z,33.55
2019-05-13T05:52:45.410Z,33.59
2019-05-13T05:53:22.911Z,33.59
2019-05-13T05:54:02.363Z,33.61
2019-05-13T05:54:38.898Z,33.63
2019-05-13T05:55:14.772Z,33.64
2019-05-13T05:55:52.284Z,33.67
2019-05-13T05:56:32.520Z,33.69
2019-05-13T05:57:09.142Z,33.71
2019-05-13T05:57:45.268Z,33.75
2019-05-13T05:58:22.836Z,33.85
2019-05-13T05:59:02.734Z,34.03
2019-05-13T05:59:38.882Z,34.26
2019-05-13T06:00:14.996Z,34.47
2019-05-13T06:00:52.472Z,34.63
2019-05-13T06:01:28.419Z,34.83
2019-05-13T06:02:04.400Z,34.95
2019-05-13T06:02:42.731Z,34.96
2019-05-13T06:03:21.910Z,35.14
2019-05-13T06:04:01.538Z,35.29
2019-05-13T06:04:37.793Z,35.44
2019-05-13T06:05:13.810Z,35.49
2019-05-13T06:05:51.271Z,35.53
2019-05-13T06:06:27.205Z,35.65
2019-05-13T06:07:03.788Z,35.70
2019-05-13T06:07:42.156Z,35.81
2019-05-13T06:08:18.168Z,35.93
2019-05-13T06:08:54.123Z,36.05
2019-05-13T06:09:32.243Z,36.14
2019-05-13T06:10:08.742Z,36.10
2019-05-13T06:10:50.078Z,36.09
2019-05-13T06:11:22.801Z,36.05
2019-05-13T06:11:58.737Z,36.03
2019-05-13T06:12:34.914Z,36.19
2019-05-13T06:13:12.203Z,36.35
2019-05-13T06:13:52.187Z,36.47
2019-05-13T06:14:27.051Z,36.59
2019-05-13T06:15:03.140Z,36.60
2019-05-13T06:15:39.129Z,36.49
2019-05-13T06:16:15.164Z,36.40
2019-05-13T06:16:51.847Z,36.30
2019-05-13T06:17:27.920Z,36.20
2019-05-13T06:18:03.931Z,36.14
2019-05-13T06:18:41.522Z,36.06
2019-05-13T06:19:18.122Z,35.98
2019-05-13T06:19:54.157Z,35.90
2019-05-13T06:20:31.687Z,35.86
2019-05-13T06:21:07.795Z,35.78
2019-05-13T06:21:43.792Z,35.68
2019-05-13T06:22:21.640Z,35.62
2019-05-13T06:22:57.451Z,35.55
2019-05-13T06:23:33.372Z,35.49
2019-05-13T06:24:11.596Z,35.43
2019-05-13T06:24:48.203Z,35.38
2019-05-13T06:25:24.105Z,35.31
2019-05-13T06:26:01.947Z,35.25
2019-05-13T06:26:38.059Z,35.19
2019-05-13T06:27:14.027Z,35.13
2019-05-13T06:27:51.237Z,35.08
2019-05-13T06:28:27.230Z,35.03
2019-05-13T06:29:03.105Z,34.97
2019-05-13T06:29:38.969Z,34.92
2019-05-13T06:30:15.223Z,34.90
2019-05-13T06:30:53.323Z,34.86
2019-05-13T06:31:29.195Z,34.85
2019-05-13T06:32:18.154Z,34.84
2019-05-13T06:32:43.028Z,34.84
2019-05-13T06:33:21.152Z,34.84
2019-05-13T06:33:57.248Z,34.84
2019-05-13T06:34:36.230Z,34.82
2019-05-13T06:35:12.170Z,34.81
2019-05-13T06:35:48.082Z,34.78
2019-05-13T06:36:23.969Z,34.78
2019-05-13T06:37:01.761Z,34.79
2019-05-13T06:37:37.657Z,34.80
2019-05-13T06:38:16.589Z,34.79
2019-05-13T06:38:52.594Z,34.78
2019-05-13T06:39:28.455Z,34.77
2019-05-13T06:40:04.434Z,34.76
2019-05-13T06:40:42.397Z,34.77
2019-05-13T06:41:18.049Z,34.78
2019-05-13T06:41:53.910Z,34.73
2019-05-13T06:42:32.270Z,34.75
2019-05-13T06:43:07.505Z,34.75
2019-05-13T06:43:43.517Z,34.75
2019-05-13T06:44:21.493Z,34.75
2019-05-13T06:45:01.948Z,34.76
2019-05-13T06:45:37.733Z,34.76
2019-05-13T06:46:13.681Z,34.78
2019-05-13T06:46:51.668Z,34.81
2019-05-13T06:47:27.225Z,34.97
2019-05-13T06:48:04.282Z,35.15
2019-05-13T06:48:41.432Z,35.26
2019-05-13T06:49:17.529Z,35.38
2019-05-13T06:49:59.232Z,35.50
2019-05-13T06:50:35.470Z,35.61
2019-05-13T06:56:38.959Z,35.66
2019-05-13T06:57:17.684Z,35.60
2019-05-13T06:57:53.901Z,35.56
2019-05-13T06:58:32.505Z,35.54
2019-05-13T06:59:08.964Z,35.51
2019-05-13T07:01:43.405Z,35.46
2019-05-13T07:02:21.578Z,35.35
2019-05-13T07:03:02.298Z,35.33
2019-05-13T07:03:47.878Z,35.29
2019-05-13T07:04:24.025Z,35.25
2019-05-13T07:05:02.329Z,35.26
2019-05-13T07:05:37.577Z,35.24
2019-05-13T07:06:13.609Z,35.21
2019-05-13T07:06:56.040Z,35.32
2019-05-13T07:07:31.705Z,35.45
2019-05-13T07:08:07.196Z,35.58
2019-05-13T07:08:43.920Z,35.66
2019-05-13T07:09:21.599Z,35.57
2019-05-13T07:09:59.055Z,35.49
2019-05-13T07:10:35.008Z,35.43
2019-05-13T07:11:18.507Z,35.39
2019-05-13T07:11:48.805Z,35.46
2019-05-13T07:12:24.954Z,35.64
2019-05-13T07:13:02.184Z,35.77
2019-05-13T07:13:42.287Z,35.88
2019-05-13T07:14:18.257Z,35.99
2019-05-13T07:14:57.372Z,36.11
2019-05-13T07:15:36.216Z,36.22
2019-05-13T07:16:12.194Z,36.33
2019-05-13T07:16:48.169Z,36.45
2019-05-13T07:17:24.183Z,36.55
2019-05-13T07:18:02.334Z,36.61
2019-05-13T07:18:37.847Z,36.65
2019-05-13T07:19:13.715Z,36.75
2019-05-13T07:19:51.718Z,36.74
2019-05-13T07:20:27.403Z,36.79
2019-05-13T07:21:03.306Z,36.82
2019-05-13T07:21:41.615Z,36.76
2019-05-13T07:22:23.537Z,36.66
2019-05-13T07:23:01.622Z,36.61
2019-05-13T07:23:37.090Z,36.51
2019-05-13T07:24:13.106Z,36.49
2019-05-13T07:24:49.066Z,36.53
2019-05-13T07:25:26.728Z,36.64
2019-05-13T07:26:03.064Z,36.70
2019-05-13T07:26:38.938Z,36.66
2019-05-13T07:27:14.854Z,36.67
2019-05-13T07:27:51.504Z,36.77
2019-05-13T07:28:27.815Z,36.82
2019-05-13T07:29:04.379Z,36.70
2019-05-13T07:29:42.346Z,36.72
2019-05-13T07:30:24.759Z,36.61
2019-05-13T07:31:04.421Z,36.49
2019-05-13T07:31:42.211Z,36.40
2019-05-13T07:32:18.379Z,36.40
2019-05-13T07:32:58.037Z,36.43
2019-05-13T07:33:38.694Z,36.45
2019-05-13T07:34:17.622Z,36.51
2019-05-13T07:34:56.435Z,36.59
2019-05-13T07:35:37.929Z,36.62
2019-05-13T07:36:12.731Z,36.67
2019-05-13T07:36:51.178Z,36.64
2019-05-13T07:37:26.533Z,36.73
2019-05-13T07:38:02.637Z,36.78
2019-05-13T07:38:38.494Z,36.82
2019-05-13T07:39:14.370Z,36.83
2019-05-13T07:39:53.023Z,36.88
2019-05-13T07:40:32.057Z,36.88
2019-05-13T07:41:07.637Z,36.90
2019-05-13T07:41:43.452Z,36.90
2019-05-13T07:42:22.205Z,36.94
2019-05-13T07:43:01.552Z,36.80
2019-05-13T07:43:37.383Z,36.65
2019-05-13T07:44:28.069Z,36.54
2019-05-13T07:45:03.957Z,36.44
2019-05-13T07:45:42.084Z,36.22
2019-05-13T07:46:17.657Z,36.31
2019-05-13T07:46:53.584Z,36.36
2019-05-13T07:47:31.489Z,36.45
2019-05-13T07:48:19.438Z,36.50
2019-05-13T07:48:44.888Z,36.61
2019-05-13T07:49:22.520Z,36.65
2019-05-13T07:49:58.528Z,36.67
2019-05-13T07:50:34.506Z,36.72
2019-05-13T07:51:11.940Z,36.77
2019-05-13T07:51:51.898Z,36.75
2019-05-13T07:52:26.995Z,36.76
2019-05-13T07:53:02.934Z,36.76
2019-05-13T07:53:38.869Z,36.78
2019-05-13T07:54:22.046Z,36.78
2019-05-13T07:54:57.681Z,36.81
2019-05-13T07:55:33.730Z,36.82
2019-05-13T07:56:11.768Z,36.84
2019-05-13T07:56:47.242Z,36.87
2019-05-13T07:57:23.128Z,36.87
2019-05-13T07:58:02.298Z,36.90
2019-05-13T07:58:38.235Z,36.86
2019-05-13T07:59:22.905Z,36.86
2019-05-13T08:00:02.009Z,36.84
2019-05-13T08:00:41.927Z,36.81
2019-05-13T08:01:52.729Z,36.72
2019-05-13T08:02:28.719Z,36.70
2019-05-13T08:03:04.630Z,36.69
2019-05-13T08:03:42.213Z,36.60
2019-05-13T08:04:22.691Z,36.59
2019-05-13T08:04:56.363Z,36.55
2019-05-13T08:05:35.181Z,36.52
2019-05-13T08:06:11.271Z,36.52
2019-05-13T08:06:52.401Z,36.54
2019-05-13T08:07:28.491Z,36.56
2019-05-13T08:08:04.439Z,36.54
2019-05-13T08:08:41.641Z,36.56
2019-05-13T08:09:21.451Z,36.54
2019-05-13T08:10:00.105Z,36.54
2019-05-13T08:10:34.464Z,36.57
2019-05-13T08:11:12.688Z,36.52
2019-05-13T08:12:04.307Z,36.51
2019-05-13T08:12:25.884Z,36.53
2019-05-13T08:13:02.455Z,36.50
2019-05-13T08:13:38.421Z,36.49
2019-05-13T08:14:14.363Z,36.47
2019-05-13T08:14:52.122Z,36.47
2019-05-13T08:15:28.548Z,36.44
2019-05-13T08:16:07.360Z,36.43
2019-05-13T08:16:43.206Z,36.44
2019-05-13T08:17:19.114Z,36.45
2019-05-13T08:17:55.967Z,36.44
2019-05-13T08:18:32.206Z,36.34
2019-05-13T08:19:08.108Z,36.37
2019-05-13T08:19:44.020Z,36.35
2019-05-13T08:21:21.876Z,36.33
2019-05-13T08:22:01.846Z,36.34
2019-05-13T08:22:37.078Z,36.40
2019-05-13T08:23:12.998Z,36.31
2019-05-13T08:23:52.645Z,36.25
2019-05-13T08:24:37.505Z,36.30
2019-05-13T08:25:15.201Z,36.28
2019-05-13T08:25:51.526Z,36.30
2019-05-13T08:26:27.525Z,36.33
2019-05-13T08:27:03.412Z,36.34
2019-05-13T08:27:41.958Z,36.37
2019-05-13T08:28:17.836Z,36.43
2019-05-13T08:29:01.382Z,36.49
2019-05-13T08:29:35.028Z,36.51
2019-05-13T08:30:12.001Z,36.45
2019-05-13T08:30:48.019Z,36.38
2019-05-13T08:31:23.939Z,36.40
2019-05-13T08:32:02.403Z,36.39
2019-05-13T08:32:37.656Z,36.42
2019-05-13T08:33:13.557Z,36.44
2019-05-13T08:33:51.904Z,36.49
2019-05-13T08:34:32.876Z,36.46
2019-05-13T08:35:09.259Z,36.49
2019-05-13T08:35:47.029Z,36.52
2019-05-13T08:36:25.093Z,36.57